X  Close Metar Aviation Weather Data     NZCH Christchurch International
Temperature
5°C Temperature
4°C Dewpoint
93% Humidity



Wind
13 KM/H
8 MPH
4 M/S
7 KTS



280°
West
Current Conditions

Mostly Scattered Clouds Mostly Scattered Clouds
Pressure 1020.92 (hPa) - 30.15 (inHg)
Visibility 6.2 (mile) - 10 (km)
Airport
Airport-code NZCH

Location: Christchurch International
Distance: 14 (km)

Metar:
NZCH 020800Z AUTO 28007KT 9999 SCT023/// 05/04 Q1021 NOSIG

Time: 02-07-2020 8:00 pm NZST